Latest Weather Observations for Cloncurry

IDQ60801

Issued at 11:32 am EST Friday 29 April 2016 (issued every 30 minutes, with the page automatically refreshed every 10 minutes)

About weather observations | Map of weather stations | Latest weather observations for QLD | Other Formats
Station Details ID: 029141 Name: CLONCURRY AIRPORT Lat: -20.67 Lon: 140.50 Height: 186.0 m
Data from the previous 72 hours. | See also: Recent months at Cloncurry
Date/Time
EST
Temp
°C
App
Temp
°C
Dew
Point
Rel
Hum
%
Delta-T
°C
Wind Press
QNH
hPa
Press
MSL
hPa
Rain
since 9 am
mm
Dir
 
Spd
km/h
Gust
km/h
Spd
kts
Gust
kts
29/11:30am 31.3 29.9 14.4 35 10.4 NNE 15 22 8 12 1015.7 1014.6 0.0
29/11:00am 30.6 28.9 14.7 38 9.8 NE 17 26 9 14 1016.3 1015.2 0.0
29/10:30am 29.6 28.0 15.0 41 9.0 NE 17 24 9 13 1016.7 1015.6 0.0
29/10:00am 29.2 27.6 15.0 42 8.7 NNE 17 20 9 11 1017.0 1015.9 0.0
29/09:30am 28.7 27.4 15.9 45 8.0 NNE 17 26 9 14 1016.9 1015.8 0.0
29/09:00am 28.0 27.0 15.6 46 7.6 NNE 15 20 8 11 1016.9 1015.8 0.0
29/08:30am 27.5 27.1 15.2 47 7.5 NE 11 15 6 8 1016.7 1015.6 0.0
29/08:00am 26.2 26.1 15.0 50 6.8 E 9 11 5 6 1016.4 1015.3 0.0
29/07:30am 24.4 24.0 14.2 53 6.1 ESE 9 9 5 5 1015.9 1014.8 0.0
29/07:00am 23.3 21.9 13.5 54 5.7 ESE 13 15 7 8 1015.5 1014.4 0.0
29/06:30am 23.5 22.6 13.7 54 5.8 E 11 15 6 8 1014.8 1013.7 0.0
29/06:00am 23.6 22.6 13.5 53 5.9 E 11 13 6 7 1014.4 1013.3 0.0
29/05:30am 24.2 23.9 12.8 49 6.6 E 6 9 3 5 1014.1 1013.0 0.0
29/05:00am 24.1 23.6 12.7 49 6.6 ESE 7 9 4 5 1013.7 1012.6 0.0
29/04:30am 24.5 24.0 12.5 47 6.9 ESE 7 11 4 6 1013.4 1012.4 0.0
29/04:00am 24.5 23.8 13.1 49 6.7 SE 9 11 5 6 1013.2 1012.2 0.0
29/03:30am 23.5 23.0 12.5 50 6.3 SE 7 9 4 5 1013.2 1012.2 0.0
29/03:00am 23.2 21.8 12.2 50 6.3 SSE 11 11 6 6 1013.2 1012.2 0.0
29/02:30am 23.3 22.3 12.3 50 6.3 S 9 11 5 6 1013.3 1012.3 0.0
29/02:00am 23.2 22.7 12.5 51 6.2 S 7 9 4 5 1013.6 1012.5 0.0
29/01:30am 23.4 22.8 11.8 48 6.6 S 6 7 3 4 1013.7 1012.6 0.0
29/01:00am 24.1 23.5 12.4 48 6.7 S 7 7 4 4 1014.0 1012.9 0.0
29/12:30am 24.2 23.7 12.5 48 6.8 S 7 9 4 5 1014.1 1013.0 0.0
29/12:00am 23.9 23.2 11.9 47 6.9 S 7 9 4 5 1014.3 1013.2 0.0
 
Date/Time
EST
Temp
°C
App
Temp
°C
Dew
Point
Rel
Hum
%
Delta-T
°C
Wind Press
QNH
hPa
Press
MSL
hPa
Rain
since 9 am
mm
Dir
 
Spd
km/h
Gust
km/h
Spd
kts
Gust
kts
28/11:30pm 24.4 23.9 12.0 46 7.1 SSE 6 7 3 4 1014.4 1013.3 0.0
28/11:00pm 24.6 24.1 12.5 46 7.0 SSE 7 7 4 4 1014.7 1013.6 0.0
28/10:30pm 24.5 23.6 11.5 44 7.4 SE 7 11 4 6 1014.7 1013.6 0.0
28/10:00pm 25.6 24.9 11.4 41 8.1 ESE 6 6 3 3 1014.8 1013.7 0.0
28/09:30pm 27.1 26.3 11.6 38 8.9 ESE 7 9 4 5 1014.6 1013.5 0.0
28/09:00pm 27.4 26.1 11.4 37 9.2 ESE 9 9 5 5 1014.4 1013.3 0.0
28/08:30pm 28.2 27.0 11.7 36 9.6 ESE 9 9 5 5 1014.0 1012.9 0.0
28/08:00pm 28.4 27.4 11.0 34 10.0 ESE 7 9 4 5 1013.7 1012.6 0.0
28/07:30pm 29.3 28.4 11.4 33 10.4 ESE 7 9 4 5 1013.2 1012.2 0.0
28/07:00pm 30.3 29.0 11.3 31 11.1 ESE 9 11 5 6 1012.8 1011.7 0.0
28/06:30pm 31.0 29.7 11.4 30 11.5 E 9 11 5 6 1012.5 1011.4 0.0
28/06:00pm 32.1 30.2 11.8 29 12.0 E 13 17 7 9 1012.3 1011.2 0.0
28/05:30pm 32.5 31.1 12.2 29 12.1 ESE 11 17 6 9 1012.0 1010.9 0.0
28/05:00pm 32.8 30.9 11.9 28 12.4 SE 13 19 7 10 1012.0 1010.9 0.0
28/04:30pm 33.2 32.2 11.1 26 13.0 ESE 7 11 4 6 1012.1 1011.0 0.0
28/04:00pm 33.0 31.8 11.5 27 12.7 ENE 9 24 5 13 1011.9 1010.8 0.0
28/03:30pm 33.5 32.2 12.5 28 12.6 NW 11 19 6 10 1011.9 1010.8 0.0
28/03:00pm 33.0 31.3 12.6 29 12.3 NE 13 20 7 11 1012.2 1011.1 0.0
28/02:30pm 31.4 30.4 12.2 30 11.4 NNW 9 13 5 7 1012.4 1011.3 0.0
28/02:00pm 31.5 30.3 12.8 32 11.2 E 11 24 6 13 1012.7 1011.6 0.0
28/01:30pm 32.4 31.5 12.6 30 11.9 SE 9 15 5 8 1012.9 1011.8 0.0
28/01:00pm 33.0 32.2 14.1 32 11.6 ESE 11 20 6 11 1013.6 1012.5 0.0
28/12:30pm 32.2 31.3 14.8 35 10.8 E 13 20 7 11 1014.3 1013.2 0.0
28/12:00pm 30.9 30.2 15.3 38 9.7 ENE 13 20 7 11 1014.8 1013.7 0.0
28/11:30am 30.5 30.0 15.8 41 9.2 NE 13 19 7 10 1015.2 1014.1 0.0
28/11:00am 29.5 27.7 15.6 43 8.6 NE 19 28 10 15 1015.7 1014.6 0.0
28/10:30am 29.3 27.7 16.5 46 8.0 ENE 20 28 11 15 1015.7 1014.6 0.0
28/10:00am 28.3 26.2 16.2 47 7.5 ENE 22 30 12 16 1016.0 1014.9 0.0
28/09:30am 27.3 25.6 16.3 51 6.8 ENE 20 26 11 14 1015.8 1014.7 0.0
28/09:00am 26.9 25.2 16.2 52 6.6 ENE 20 30 11 16 1015.6 1014.5 0.0
28/08:30am 25.9 25.1 16.2 55 6.0 E 15 20 8 11 1015.2 1014.1 0.0
28/08:00am 24.5 23.8 15.4 57 5.5 ESE 13 19 7 10 1014.9 1013.8 0.0
28/07:30am 23.3 23.6 15.1 60 4.9 ESE 7 9 4 5 1014.5 1013.4 0.0
28/07:00am 22.7 22.2 14.8 61 4.7 ESE 11 13 6 7 1013.7 1012.6 0.0
28/06:30am 22.9 21.9 14.7 60 4.9 E 13 17 7 9 1013.4 1012.4 0.0
28/06:00am 23.0 21.9 14.3 58 5.2 E 13 17 7 9 1013.2 1012.2 0.0
28/05:30am 23.5 22.0 14.2 56 5.5 E 15 19 8 10 1013.0 1011.9 0.0
28/05:00am 24.0 21.7 14.1 54 5.9 E 19 24 10 13 1013.0 1011.9 0.0
28/04:30am 24.5 22.1 14.3 53 6.1 E 20 24 11 13 1013.1 1012.0 0.0
28/04:00am 24.7 21.5 14.2 52 6.3 E 24 28 13 15 1012.8 1011.7 0.0
28/03:30am 24.7 21.7 13.6 50 6.5 E 22 28 12 15 1012.5 1011.4 0.0
28/03:00am 25.0 21.6 12.6 46 7.2 ESE 22 28 12 15 1012.6 1011.5 0.0
28/02:30am 24.9 22.7 12.2 45 7.3 ESE 15 19 8 10 1012.9 1011.8 0.0
28/02:00am 23.0 20.6 8.7 40 7.7 SSE 11 13 6 7 1013.3 1012.3 0.0
28/01:30am 22.6 19.8 8.7 41 7.5 S 13 15 7 8 1013.7 1012.6 0.0
28/01:00am 23.2 20.8 8.5 39 7.9 SSW 11 13 6 7 1013.7 1012.6 0.0
28/12:30am 22.3 20.2 8.1 40 7.5 SSW 9 11 5 6 1013.8 1012.7 0.0
28/12:00am 22.6 19.7 8.3 40 7.6 SSW 13 15 7 8 1013.9 1012.8 0.0
 
Date/Time
EST
Temp
°C
App
Temp
°C
Dew
Point
Rel
Hum
%
Delta-T
°C
Wind Press
QNH
hPa
Press
MSL
hPa
Rain
since 9 am
mm
Dir
 
Spd
km/h
Gust
km/h
Spd
kts
Gust
kts
27/11:30pm 22.8 20.6 7.8 38 7.9 S 9 11 5 6 1014.1 1013.0 0.0
27/11:00pm 23.3 20.8 8.2 38 8.1 S 11 13 6 7 1014.2 1013.1 0.0
27/10:30pm 23.2 21.4 7.3 36 8.3 SE 6 9 3 5 1014.4 1013.3 0.0
27/10:00pm 24.9 22.9 7.1 32 9.4 SE 7 9 4 5 1014.5 1013.4 0.0
27/09:30pm 26.0 23.2 7.1 30 10.0 SE 11 15 6 8 1014.5 1013.4 0.0
27/09:00pm 26.9 23.8 7.4 29 10.5 SE 13 19 7 10 1014.3 1013.2 0.0
27/08:30pm 27.0 24.6 6.9 28 10.7 SE 9 13 5 7 1014.0 1012.9 0.0
27/08:00pm 28.3 25.6 7.5 27 11.3 SE 11 17 6 9 1013.7 1012.6 0.0
27/07:30pm 28.9 25.9 7.5 26 11.6 SE 13 15 7 8 1013.4 1012.4 0.0
27/07:00pm 29.5 26.6 8.0 26 11.8 SE 13 17 7 9 1013.1 1012.0 0.0
27/06:30pm 30.1 27.3 8.5 26 12.0 ESE 13 15 7 8 1012.8 1011.7 0.0
27/06:00pm 31.0 28.2 8.7 25 12.5 ESE 13 17 7 9 1012.6 1011.5 0.0
27/05:30pm 31.7 29.7 8.7 24 12.9 E 9 17 5 9 1012.3 1011.2 0.0
27/05:00pm 31.9 28.4 8.8 24 13.0 ESE 17 22 9 12 1012.3 1011.2 0.0
27/04:30pm 31.7 28.7 9.3 25 12.7 SSE 15 24 8 13 1012.2 1011.1 0.0
27/04:00pm 32.0 29.3 8.9 24 13.1 E 13 20 7 11 1012.3 1011.2 0.0
27/03:30pm 31.9 29.3 9.4 25 12.8 ESE 13 24 7 13 1012.4 1011.3 0.0
27/03:00pm 31.1 27.7 9.3 26 12.3 SE 17 26 9 14 1012.5 1011.4 0.0
27/02:30pm 30.9 27.5 9.2 26 12.3 E 17 24 9 13 1012.7 1011.6 0.0
27/02:00pm 32.6 30.0 10.6 26 12.8 ENE 15 26 8 14 1012.9 1011.8 0.0
27/01:30pm 31.2 27.6 10.0 27 12.1 ESE 19 30 10 16 1013.6 1012.5 0.0
27/01:00pm 33.2 30.0 11.1 26 13.0 ESE 19 28 10 15 1013.8 1012.7 0.0
27/12:30pm 31.0 27.0 10.4 28 11.9 ENE 22 32 12 17 1014.3 1013.2 0.0
27/12:00pm 30.4 26.8 9.8 28 11.7 ENE 19 26 10 14 1015.1 1014.0 0.0
27/11:30am 29.5 25.1 9.1 28 11.4 E 22 33 12 18 1015.5 1014.4 0.0
27/11:00am 29.8 26.0 9.9 29 11.3 E 20 28 11 15 1015.9 1014.8 0.0
27/10:30am 28.5 24.5 9.2 30 10.8 E 20 28 11 15 1016.6 1015.5 0.0
27/10:00am 27.4 23.9 8.8 31 10.2 ESE 17 24 9 13 1016.8 1015.7 0.0
27/09:30am 26.7 22.6 8.6 32 9.9 E 20 28 11 15 1016.7 1015.6 0.0
27/09:00am 26.1 21.2 8.6 33 9.5 ESE 24 30 13 16 1016.5 1015.4 0.0
27/08:30am 24.9 20.1 7.5 33 9.3 ESE 22 32 12 17 1016.3 1015.2 0.0
27/08:00am 24.0 20.3 6.3 32 9.2 SE 15 20 8 11 1016.1 1015.0 0.0
27/07:30am 23.0 19.6 5.9 33 8.7 SE 13 17 7 9 1015.9 1014.8 0.0
27/07:00am 22.5 19.9 5.9 34 8.4 SE 9 13 5 7 1015.4 1014.3 0.0
27/06:30am 22.4 19.0 5.8 34 8.4 SE 13 19 7 10 1014.9 1013.8 0.0
27/06:00am 22.4 19.3 5.4 33 8.6 SE 11 15 6 8 1014.9 1013.8 0.0
27/05:30am 22.7 18.9 5.6 33 8.7 ESE 15 20 8 11 1014.6 1013.5 0.0
27/05:00am 23.2 18.0 5.6 32 8.9 ESE 22 28 12 15 1014.3 1013.2 0.0
27/04:30am 23.4 18.5 5.3 31 9.2 SE 20 28 11 15 1014.3 1013.2 0.0
27/04:00am 24.1 19.3 5.5 30 9.5 SE 20 30 11 16 1014.4 1013.3 0.0
27/03:30am 24.2 19.3 5.1 29 9.7 SE 20 26 11 14 1014.5 1013.4 0.0
27/03:00am 24.4 19.0 4.7 28 9.9 SE 22 28 12 15 1014.4 1013.3 0.0
27/02:30am 24.8 19.5 5.1 28 10.0 ESE 22 33 12 18 1014.6 1013.5 0.0
27/02:00am 24.8 19.0 4.5 27 10.2 ESE 24 32 13 17 1015.0 1013.9 0.0
27/01:30am 25.0 19.5 4.2 26 10.4 SE 22 30 12 16 1015.2 1014.1 0.0
27/01:00am 25.5 19.4 4.6 26 10.6 SE 26 35 14 19 1015.3 1014.2 0.0
27/12:30am 25.5 19.1 5.1 27 10.4 SE 28 37 15 20 1015.4 1014.3 0.0
27/12:00am 25.4 20.7 5.1 27 10.4 SE 19 24 10 13 1015.7 1014.6 0.0
 
Date/Time
EST
Temp
°C
App
Temp
°C
Dew
Point
Rel
Hum
%
Delta-T
°C
Wind Press
QNH
hPa
Press
MSL
hPa
Rain
since 9 am
mm
Dir
 
Spd
km/h
Gust
km/h
Spd
kts
Gust
kts
26/11:30pm 25.2 20.8 4.9 27 10.3 SE 17 20 9 11 1015.8 1014.7 0.0
26/11:00pm 25.4 21.4 5.1 27 10.4 SE 15 19 8 10 1015.9 1014.8 0.0
26/10:30pm 25.6 21.7 5.2 27 10.5 SE 15 17 8 9 1016.1 1015.0 0.0
26/10:00pm 25.7 21.7 4.8 26 10.6 SE 15 19 8 10 1016.0 1014.9 0.0
26/09:30pm 26.0 22.3 4.5 25 10.9 SE 13 19 7 10 1015.9 1014.8 0.0
26/09:00pm 26.3 22.3 4.7 25 11.0 SSE 15 19 8 10 1015.9 1014.8 0.0
26/08:30pm 25.9 22.4 5.5 27 10.5 SSE 13 17 7 9 1015.8 1014.7 0.0
26/08:00pm 25.7 22.3 4.2 25 10.8 SE 11 13 6 7 1015.7 1014.6 0.0
26/07:30pm 26.3 23.4 4.7 25 11.0 ESE 9 11 5 6 1015.4 1014.3 0.0
26/07:00pm 27.3 23.6 4.4 23 11.7 ESE 13 17 7 9 1015.0 1013.9 0.0
26/06:30pm 28.8 23.7 4.3 21 12.6 ESE 20 26 11 14 1014.8 1013.7 0.0
26/06:00pm 29.6 24.2 4.3 20 13.1 ESE 22 30 12 16 1014.6 1013.5 0.0
26/05:30pm 30.3 24.6 4.9 20 13.3 ESE 24 35 13 19 1014.3 1013.2 0.0
26/05:00pm 30.6 25.9 5.1 20 13.4 ESE 19 28 10 15 1014.1 1013.0 0.0
26/04:30pm 31.1 25.5 5.5 20 13.6 ESE 24 33 13 18 1014.0 1012.9 0.0
26/04:00pm 31.5 25.5 5.1 19 14.0 ESE 26 35 14 19 1014.1 1013.0 0.0
26/03:30pm 31.5 26.7 5.8 20 13.8 ESE 20 32 11 17 1014.1 1013.0 0.0
26/03:00pm 30.7 26.5 5.9 21 13.3 ESE 17 30 9 16 1014.3 1013.2 0.0
26/02:30pm 31.0 25.4 5.4 20 13.6 ESE 24 33 13 18 1014.6 1013.5 0.0
26/02:00pm 31.1 26.2 6.9 22 13.2 ESE 22 32 12 17 1015.0 1013.9 0.0
26/01:30pm 30.1 25.5 6.7 23 12.6 SE 20 32 11 17 1015.3 1014.2 0.0
26/01:00pm 30.1 26.1 6.7 23 12.6 SE 17 28 9 15 1015.9 1014.8 0.0
26/12:30pm 29.8 24.8 6.5 23 12.5 ESE 22 35 12 19 1016.4 1015.3 0.0
26/12:00pm 29.6 24.3 6.9 24 12.2 E 24 35 13 19 1017.0 1015.9 0.0

Other Formats:

Comma delimited format used in spreadsheet applications
http://www.bom.gov.au/fwo/IDQ60801/IDQ60801.94335.axf

JavaScript Object Notation format (JSON) in row-major order
http://www.bom.gov.au/fwo/IDQ60801/IDQ60801.94335.json